createdAt,value
2023-04-10T00:00:51.882Z,78.1
2023-04-10T00:01:53.342Z,78
2023-04-10T00:02:55.426Z,78
2023-04-10T00:03:58.119Z,78
2023-04-10T00:04:59.645Z,78
2023-04-10T00:06:00.803Z,78
2023-04-10T00:07:01.970Z,78.1
2023-04-10T00:08:03.173Z,78.1
2023-04-10T00:09:04.365Z,78.1
2023-04-10T00:10:05.549Z,78.1
2023-04-10T00:11:06.708Z,78.2
2023-04-10T00:12:07.870Z,78.2
2023-04-10T00:13:09.057Z,78.3
2023-04-10T00:14:10.209Z,78.3
2023-04-10T00:15:11.371Z,78.4
2023-04-10T00:16:12.666Z,78.4
2023-04-10T00:17:13.940Z,78.4
2023-04-10T00:18:15.101Z,78.4
2023-04-10T00:19:16.275Z,78.4
2023-04-10T00:20:17.440Z,78.4
2023-04-10T00:21:18.603Z,78.4
2023-04-10T00:22:19.763Z,78.5
2023-04-10T00:23:20.961Z,78.5
2023-04-10T00:24:22.101Z,78.5
2023-04-10T00:25:23.345Z,78.6
2023-04-10T00:26:24.643Z,78.6
2023-04-10T00:27:25.811Z,78.6
2023-04-10T00:28:26.976Z,78.5
2023-04-10T00:29:28.140Z,78.6
2023-04-10T00:30:29.307Z,78.7
2023-04-10T00:31:30.539Z,78.7
2023-04-10T00:32:31.912Z,78.7
2023-04-10T00:33:33.220Z,78.7
2023-04-10T00:34:34.362Z,78.8
2023-04-10T00:35:35.404Z,78.8
2023-04-10T00:36:36.552Z,78.8
2023-04-10T00:37:37.719Z,78.9
2023-04-10T00:38:38.908Z,78.9
2023-04-10T00:39:40.054Z,78.9
2023-04-10T00:40:41.223Z,79
2023-04-10T00:41:42.382Z,79
2023-04-10T00:42:43.549Z,79.1
2023-04-10T00:43:44.714Z,79.2
2023-04-10T00:44:45.878Z,79.3
2023-04-10T00:45:50.895Z,79.3
2023-04-10T00:46:52.137Z,79.3
2023-04-10T00:47:53.366Z,79.4
2023-04-10T00:48:54.526Z,79.4
2023-04-10T00:49:55.692Z,79.4
2023-04-10T00:50:56.861Z,79.5
2023-04-10T00:51:59.534Z,79.5
2023-04-10T00:53:00.705Z,79.6
2023-04-10T00:54:01.886Z,79.7
2023-04-10T00:55:03.145Z,79.7
2023-04-10T00:56:04.424Z,79.8
2023-04-10T00:57:05.583Z,79.8
2023-04-10T00:58:06.758Z,79.9
2023-04-10T00:59:08.428Z,80
2023-04-10T01:00:09.600Z,80
2023-04-10T01:01:10.831Z,80.1
2023-04-10T01:02:12.306Z,80.1
2023-04-10T01:03:14.383Z,80.1
2023-04-10T01:04:15.984Z,80.2
2023-04-10T01:05:17.245Z,80.2
2023-04-10T01:06:18.412Z,80.2
2023-04-10T01:07:19.593Z,80.2
2023-04-10T01:08:20.755Z,80.1
2023-04-10T01:09:21.945Z,80.1
2023-04-10T01:10:23.087Z,80.1
2023-04-10T01:11:24.264Z,80.1
2023-04-10T01:12:25.427Z,80.2
2023-04-10T01:13:26.592Z,80.2
2023-04-10T01:14:27.781Z,80.2
2023-04-10T01:15:28.969Z,80.3
2023-04-10T01:16:30.226Z,80.4
2023-04-10T01:17:31.393Z,80.5
2023-04-10T01:18:32.547Z,80.6
2023-04-10T01:19:33.715Z,80.6
2023-04-10T01:20:34.883Z,80.6
2023-04-10T01:21:36.048Z,80.6
2023-04-10T01:22:37.221Z,80.5
2023-04-10T01:23:38.384Z,80.4
2023-04-10T01:24:39.576Z,80.4
2023-04-10T01:25:40.721Z,80.1
2023-04-10T01:26:41.896Z,80
2023-04-10T01:27:43.051Z,79.9
2023-04-10T01:28:44.215Z,79.8
2023-04-10T01:29:45.567Z,79.8
2023-04-10T01:30:46.780Z,79.7
2023-04-10T01:31:47.913Z,79.6
2023-04-10T01:32:49.187Z,79.7
2023-04-10T01:33:50.354Z,79.7
2023-04-10T01:34:51.552Z,79.6
2023-04-10T01:35:52.985Z,79.5
2023-04-10T01:36:54.237Z,79.6
2023-04-10T01:37:55.392Z,79.6
2023-04-10T01:38:56.561Z,79.6
2023-04-10T01:39:57.759Z,79.6
2023-04-10T01:40:58.779Z,79.5
2023-04-10T01:42:00.100Z,79.6
2023-04-10T01:43:01.280Z,79.7
2023-04-10T01:44:02.432Z,79.7
2023-04-10T01:45:03.595Z,79.8
2023-04-10T01:46:04.989Z,79.9
2023-04-10T01:47:06.147Z,80
2023-04-10T01:48:07.471Z,80.1
2023-04-10T01:49:08.757Z,80.1
2023-04-10T01:50:09.924Z,80.2
2023-04-10T01:51:11.091Z,80.3
2023-04-10T01:52:12.257Z,80.3
2023-04-10T01:53:13.421Z,80.3
2023-04-10T01:54:14.580Z,80.3
2023-04-10T01:55:15.777Z,80.3
2023-04-10T01:56:16.918Z,80.3
2023-04-10T01:57:18.113Z,80.3
2023-04-10T01:58:19.262Z,80.3
2023-04-10T01:59:20.427Z,80.4
2023-04-10T02:00:21.682Z,80.5
2023-04-10T02:01:31.064Z,80.6
2023-04-10T02:02:32.786Z,80.7
2023-04-10T02:03:34.734Z,80.8
2023-04-10T02:04:36.447Z,80.9
2023-04-10T02:05:37.646Z,80.9
2023-04-10T02:06:38.809Z,80.9
2023-04-10T02:07:39.973Z,81
2023-04-10T02:08:40.949Z,81.1
2023-04-10T02:09:42.112Z,81.1
2023-04-10T02:10:43.304Z,81.2
2023-04-10T02:11:44.453Z,81.2
2023-04-10T02:12:45.629Z,81.3
2023-04-10T02:13:46.791Z,81.4
2023-04-10T02:14:47.974Z,81.4
2023-04-10T02:15:49.150Z,81.5
2023-04-10T02:16:50.310Z,81.5
2023-04-10T02:17:51.625Z,81.5
2023-04-10T02:18:52.792Z,81.5
2023-04-10T02:19:53.964Z,81.4
2023-04-10T02:20:55.127Z,81.4
2023-04-10T02:21:56.293Z,81.4
2023-04-10T02:22:57.304Z,81.5
2023-04-10T02:23:58.510Z,81.5
2023-04-10T02:24:59.827Z,81.6
2023-04-10T02:26:01.018Z,81.6
2023-04-10T02:27:02.297Z,81.4
2023-04-10T02:28:03.458Z,81.3
2023-04-10T02:29:04.627Z,81.2
2023-04-10T02:30:05.797Z,81.2
2023-04-10T02:31:07.134Z,81.1
2023-04-10T02:32:08.366Z,81
2023-04-10T02:33:09.516Z,81
2023-04-10T02:34:10.699Z,81
2023-04-10T02:35:11.856Z,81.1
2023-04-10T02:36:13.062Z,81.1
2023-04-10T02:37:14.242Z,81
2023-04-10T02:38:17.943Z,80.9
2023-04-10T02:39:19.107Z,80.8
2023-04-10T02:40:20.273Z,80.8
2023-04-10T02:41:21.460Z,80.8
2023-04-10T02:42:22.600Z,80.8
2023-04-10T02:43:23.778Z,80.9
2023-04-10T02:44:24.953Z,80.9
2023-04-10T02:45:26.128Z,81
2023-04-10T02:46:27.429Z,81
2023-04-10T02:47:28.719Z,81
2023-04-10T02:48:29.885Z,81.1
2023-04-10T02:49:31.044Z,81.1
2023-04-10T02:50:32.205Z,81.2
2023-04-10T02:51:33.378Z,81.2
2023-04-10T02:52:34.545Z,81.2
2023-04-10T02:53:35.712Z,81.2
2023-04-10T02:54:36.901Z,81.3
2023-04-10T02:55:38.057Z,81.4
2023-04-10T02:56:39.247Z,81.4
2023-04-10T02:57:40.385Z,81.4
2023-04-10T02:58:41.558Z,81.4
2023-04-10T02:59:42.724Z,81.3
2023-04-10T03:00:43.892Z,81.4
2023-04-10T03:01:45.455Z,81.4
2023-04-10T03:02:47.239Z,81.4
2023-04-10T03:03:48.820Z,81.4
2023-04-10T03:04:50.285Z,81.4
2023-04-10T03:05:51.716Z,81.5
2023-04-10T03:06:53.026Z,81.5
2023-04-10T03:07:54.204Z,81.5
2023-04-10T03:08:55.361Z,81.4
2023-04-10T03:09:56.532Z,81.4
2023-04-10T03:10:57.692Z,81.4
2023-04-10T03:11:58.895Z,81.4
2023-04-10T03:13:00.139Z,81.5
2023-04-10T03:14:01.304Z,81.5
2023-04-10T03:15:02.467Z,81.6
2023-04-10T03:16:03.704Z,81.7
2023-04-10T03:17:04.870Z,81.6
2023-04-10T03:18:06.181Z,81.6
2023-04-10T03:19:07.329Z,81.6
2023-04-10T03:20:08.488Z,81.5
2023-04-10T03:21:09.654Z,81.4
2023-04-10T03:22:10.664Z,81.3
2023-04-10T03:23:11.833Z,81.3
2023-04-10T03:24:13.101Z,81.3
2023-04-10T03:25:17.516Z,81.4
2023-04-10T03:26:18.692Z,81.5
2023-04-10T03:27:19.875Z,81.5
2023-04-10T03:28:21.014Z,81.6
2023-04-10T03:29:22.182Z,81.6
2023-04-10T03:30:23.349Z,81.6
2023-04-10T03:31:24.676Z,81.6
2023-04-10T03:32:25.858Z,81.7
2023-04-10T03:33:27.068Z,81.7
2023-04-10T03:34:28.131Z,81.8
2023-04-10T03:35:29.309Z,81.8
2023-04-10T03:36:30.480Z,81.9
2023-04-10T03:37:31.657Z,81.9
2023-04-10T03:38:32.686Z,81.9
2023-04-10T03:39:33.851Z,82
2023-04-10T03:40:35.130Z,82.1
2023-04-10T03:41:36.305Z,82.1
2023-04-10T03:42:37.493Z,82.2
2023-04-10T03:43:38.639Z,82.2
2023-04-10T03:44:39.793Z,82.2
2023-04-10T03:45:40.962Z,82.3
2023-04-10T03:46:42.165Z,82.3
2023-04-10T03:47:43.496Z,82.3
2023-04-10T03:48:44.733Z,82.3
2023-04-10T03:49:45.888Z,82.4
2023-04-10T03:50:47.057Z,82.4
2023-04-10T03:51:48.245Z,82.4
2023-04-10T03:52:49.386Z,82.5
2023-04-10T03:53:50.548Z,82.5
2023-04-10T03:54:51.526Z,82.6
2023-04-10T03:55:52.615Z,82.6
2023-04-10T03:56:53.923Z,82.7
2023-04-10T03:57:55.083Z,82.7
2023-04-10T03:58:56.222Z,82.7
2023-04-10T03:59:57.389Z,82.7
2023-04-10T04:00:58.554Z,82.8
2023-04-10T04:01:59.900Z,82.9
2023-04-10T04:03:01.802Z,83
2023-04-10T04:04:03.827Z,83
2023-04-10T04:05:05.585Z,82.9
2023-04-10T04:06:06.721Z,82.9
2023-04-10T04:07:07.693Z,82.9
2023-04-10T04:08:08.856Z,82.8
2023-04-10T04:09:10.024Z,82.8
2023-04-10T04:10:11.195Z,82.8
2023-04-10T04:11:12.358Z,82.8
2023-04-10T04:12:13.349Z,82.7
2023-04-10T04:13:14.528Z,82.4
2023-04-10T04:14:15.666Z,82.2
2023-04-10T04:15:16.838Z,82
2023-04-10T04:16:18.006Z,82
2023-04-10T04:17:18.969Z,81.8
2023-04-10T04:18:20.128Z,81.7
2023-04-10T04:19:21.498Z,81.6
2023-04-10T04:20:22.670Z,81.5
2023-04-10T04:21:23.621Z,81.4
2023-04-10T04:22:24.797Z,81.4
2023-04-10T04:23:25.956Z,81.4
2023-04-10T04:24:27.120Z,81.4
2023-04-10T04:25:28.287Z,81.6
2023-04-10T04:26:29.455Z,81.7
2023-04-10T04:27:30.620Z,81.8
2023-04-10T04:28:31.819Z,81.8
2023-04-10T04:29:32.948Z,81.9
2023-04-10T04:30:34.121Z,82
2023-04-10T04:31:35.097Z,82.1
2023-04-10T04:32:36.455Z,82.1
2023-04-10T04:33:37.671Z,82.2
2023-04-10T04:34:38.641Z,82.2
2023-04-10T04:35:39.758Z,82.2
2023-04-10T04:36:40.912Z,82.2
2023-04-10T04:37:42.080Z,82.3
2023-04-10T04:38:43.062Z,82.3
2023-04-10T04:39:44.217Z,82.3
2023-04-10T04:40:45.384Z,82.3
2023-04-10T04:41:46.549Z,82.2
2023-04-10T04:42:47.999Z,82.2
2023-04-10T04:43:49.188Z,82.3
2023-04-10T04:44:50.331Z,82.3
2023-04-10T04:45:51.626Z,82.4
2023-04-10T04:46:52.820Z,82.4
2023-04-10T04:47:53.983Z,82.4
2023-04-10T04:48:55.150Z,82.4
2023-04-10T04:49:56.310Z,82.4
2023-04-10T04:50:57.485Z,82.4
2023-04-10T04:51:58.647Z,82.4
2023-04-10T04:52:59.810Z,82.4
2023-04-10T04:54:00.977Z,82.5
2023-04-10T04:55:02.249Z,82.5
2023-04-10T04:56:03.392Z,82.5
2023-04-10T04:57:04.570Z,82.5
2023-04-10T04:58:05.584Z,82.5
2023-04-10T04:59:06.778Z,82.5
2023-04-10T05:00:07.739Z,82.6
2023-04-10T05:01:09.233Z,82.6
2023-04-10T05:02:10.699Z,82.6
2023-04-10T05:03:12.083Z,82.6
2023-04-10T05:04:13.647Z,82.6
2023-04-10T05:05:14.963Z,82.7
2023-04-10T05:06:16.125Z,82.7
2023-04-10T05:07:17.288Z,82.7
2023-04-10T05:08:18.454Z,82.8
2023-04-10T05:09:19.620Z,82.8
2023-04-10T05:10:20.789Z,82.8
2023-04-10T05:11:21.950Z,82.8
2023-04-10T05:12:23.115Z,82.7
2023-04-10T05:13:24.089Z,82.7
2023-04-10T05:14:25.279Z,82.6
2023-04-10T05:15:26.601Z,82.6
2023-04-10T05:16:27.784Z,82.6
2023-04-10T05:17:28.929Z,82.5
2023-04-10T05:18:30.087Z,82.5
2023-04-10T05:19:31.246Z,82.4
2023-04-10T05:20:32.412Z,82.3
2023-04-10T05:21:33.593Z,82.2
2023-04-10T05:22:34.744Z,82.1
2023-04-10T05:23:35.908Z,82.1
2023-04-10T05:24:37.070Z,82.1
2023-04-10T05:25:38.236Z,82.2
2023-04-10T05:26:39.416Z,82.2
2023-04-10T05:27:40.572Z,82.3
2023-04-10T05:28:41.742Z,82.3
2023-04-10T05:29:42.927Z,82.4
2023-04-10T05:30:44.115Z,82.4
2023-04-10T05:31:45.266Z,82.5
2023-04-10T05:32:46.666Z,82.5
2023-04-10T05:33:47.639Z,82.5
2023-04-10T05:34:48.813Z,82.6
2023-04-10T05:35:49.985Z,82.7
2023-04-10T05:36:51.136Z,82.7
2023-04-10T05:37:52.331Z,82.7
2023-04-10T05:38:54.786Z,82.7
2023-04-10T05:39:56.056Z,82.6
2023-04-10T05:40:57.073Z,82.5
2023-04-10T05:41:58.296Z,82.7
2023-04-10T05:42:59.427Z,82.7
2023-04-10T05:44:00.635Z,82.7
2023-04-10T05:45:01.738Z,82.5
2023-04-10T05:46:02.904Z,82.3
2023-04-10T05:47:04.067Z,82.2
2023-04-10T05:48:05.407Z,82.2
2023-04-10T05:49:06.563Z,82.1
2023-04-10T05:50:07.752Z,82.1
2023-04-10T05:51:08.897Z,82.1
2023-04-10T05:52:10.065Z,82.1
2023-04-10T05:53:11.226Z,82
2023-04-10T05:54:12.402Z,82
2023-04-10T05:55:13.584Z,82.1
2023-04-10T05:56:14.729Z,82.2
2023-04-10T05:57:15.904Z,82.2
2023-04-10T05:58:17.056Z,82.2
2023-04-10T05:59:18.029Z,82.1
2023-04-10T06:00:19.217Z,82
2023-04-10T06:01:20.363Z,81.9
2023-04-10T06:02:22.299Z,81.8
2023-04-10T06:03:24.000Z,81.7
2023-04-10T06:04:25.966Z,81.7
2023-04-10T06:05:27.399Z,81.7
2023-04-10T06:06:28.561Z,81.6
2023-04-10T06:07:29.730Z,81.6
2023-04-10T06:08:30.885Z,81.6
2023-04-10T06:09:32.070Z,81.6
2023-04-10T06:10:33.233Z,81.6
2023-04-10T06:11:34.421Z,81.6
2023-04-10T06:12:35.629Z,81.5
2023-04-10T06:13:36.943Z,81.5
2023-04-10T06:14:37.954Z,81.5
2023-04-10T06:15:39.165Z,81.5
2023-04-10T06:16:40.435Z,81.4
2023-04-10T06:17:41.992Z,81.3
2023-04-10T06:18:43.456Z,81.2
2023-04-10T06:19:44.472Z,81
2023-04-10T06:20:45.635Z,80.9
2023-04-10T06:21:46.609Z,80.7
2023-04-10T06:22:47.773Z,80.6
2023-04-10T06:23:48.943Z,80.5
2023-04-10T06:24:49.918Z,80.3
2023-04-10T06:25:51.074Z,80.2
2023-04-10T06:26:52.097Z,80
2023-04-10T06:27:53.066Z,79.9
2023-04-10T06:28:55.019Z,79.8
2023-04-10T06:29:56.411Z,79.7
2023-04-10T06:30:57.720Z,79.7
2023-04-10T06:31:59.165Z,79.6
2023-04-10T06:33:00.702Z,79.4
2023-04-10T06:34:01.882Z,79.3
2023-04-10T06:35:03.028Z,79.2
2023-04-10T06:36:04.288Z,79.2
2023-04-10T06:37:05.591Z,79.1
2023-04-10T06:38:06.759Z,79
2023-04-10T06:39:08.245Z,78.8
2023-04-10T06:40:09.586Z,78.7
2023-04-10T06:41:10.745Z,78.6
2023-04-10T06:42:11.911Z,78.4
2023-04-10T06:43:13.111Z,78.3
2023-04-10T06:44:14.047Z,78.2
2023-04-10T06:45:15.214Z,78.1
2023-04-10T06:46:16.677Z,78
2023-04-10T06:47:17.938Z,77.9
2023-04-10T06:48:18.924Z,77.8
2023-04-10T06:49:20.092Z,77.7
2023-04-10T06:50:21.248Z,77.5
2023-04-10T06:51:22.410Z,77.4
2023-04-10T06:52:23.587Z,77.2
2023-04-10T06:53:24.751Z,77.1
2023-04-10T06:54:25.913Z,76.9
2023-04-10T06:55:27.086Z,76.9
2023-04-10T06:56:28.243Z,76.8
2023-04-10T06:57:29.465Z,76.6
2023-04-10T06:58:30.642Z,76.5
2023-04-10T06:59:31.805Z,76.4
2023-04-10T07:00:33.053Z,76.2
2023-04-10T07:01:34.456Z,76
2023-04-10T07:02:35.853Z,75.7
2023-04-10T07:03:37.186Z,75.4
2023-04-10T07:04:38.436Z,75.1
2023-04-10T07:05:42.811Z,74.8
2023-04-10T07:06:43.971Z,74.6
2023-04-10T07:07:45.143Z,74.4
2023-04-10T07:08:46.107Z,74.2
2023-04-10T07:09:47.273Z,73.9
2023-04-10T07:10:48.448Z,73.7
2023-04-10T07:11:49.638Z,73.4
2023-04-10T07:12:50.778Z,73.1
2023-04-10T07:13:51.939Z,72.8
2023-04-10T07:14:53.171Z,72.5
2023-04-10T07:15:54.444Z,72.3
2023-04-10T07:16:55.744Z,72.2
2023-04-10T07:17:57.217Z,72
2023-04-10T07:18:58.296Z,71.8
2023-04-10T07:19:59.467Z,71.7
2023-04-10T07:21:00.628Z,71.6
2023-04-10T07:22:01.796Z,71.4
2023-04-10T07:23:02.980Z,71.1
2023-04-10T07:24:03.954Z,70.9
2023-04-10T07:25:05.175Z,70.7
2023-04-10T07:26:06.434Z,70.5
2023-04-10T07:27:07.600Z,70.3
2023-04-10T07:28:08.787Z,70.1
2023-04-10T07:29:09.935Z,69.8
2023-04-10T07:30:14.285Z,69.7
2023-04-10T07:31:15.663Z,69.5
2023-04-10T07:32:17.357Z,69.4
2023-04-10T07:33:19.440Z,69.3
2023-04-10T07:34:20.831Z,69.1
2023-04-10T07:35:21.997Z,68.9
2023-04-10T07:36:23.168Z,68.7
2023-04-10T07:37:24.531Z,68.5
2023-04-10T07:38:25.694Z,68.3
2023-04-10T07:39:26.862Z,68.2
2023-04-10T07:40:28.027Z,68.2
2023-04-10T07:41:29.195Z,68
2023-04-10T07:42:30.387Z,67.9
2023-04-10T07:43:31.551Z,67.7
2023-04-10T07:44:32.711Z,67.5
2023-04-10T07:45:33.890Z,67.4
2023-04-10T07:46:35.150Z,67.3
2023-04-10T07:47:36.711Z,67.3
2023-04-10T07:48:37.935Z,67.3
2023-04-10T07:49:39.092Z,67
2023-04-10T07:50:40.397Z,66.9
2023-04-10T07:51:41.581Z,66.8
2023-04-10T07:52:42.736Z,66.7
2023-04-10T07:53:43.896Z,66.7
2023-04-10T07:54:45.066Z,66.7
2023-04-10T07:55:46.234Z,66.6
2023-04-10T07:56:47.401Z,66.4
2023-04-10T07:57:48.568Z,66.3
2023-04-10T07:58:49.732Z,66.1
2023-04-10T07:59:50.905Z,66
2023-04-10T08:00:52.068Z,66
2023-04-10T08:01:53.440Z,66
2023-04-10T08:02:55.438Z,66
2023-04-10T08:03:57.528Z,65.9
2023-04-10T08:04:59.502Z,65.9
2023-04-10T08:06:00.688Z,65.9
2023-04-10T08:07:01.877Z,65.8
2023-04-10T08:08:03.037Z,65.7
2023-04-10T08:09:04.202Z,65.5
2023-04-10T08:10:05.372Z,65.3
2023-04-10T08:11:06.545Z,65.2
2023-04-10T08:12:07.716Z,65.1
2023-04-10T08:13:08.875Z,64.9
2023-04-10T08:14:10.048Z,64.7
2023-04-10T08:15:11.223Z,64.5
2023-04-10T08:16:12.483Z,64.5
2023-04-10T08:17:13.633Z,64.4
2023-04-10T08:18:14.873Z,64.4
2023-04-10T08:19:16.037Z,64.4
2023-04-10T08:20:17.207Z,64.4
2023-04-10T08:21:18.376Z,64.4
2023-04-10T08:22:19.542Z,64.4
2023-04-10T08:23:21.876Z,64.3
2023-04-10T08:24:23.045Z,64.2
2023-04-10T08:25:24.491Z,64.2
2023-04-10T08:26:25.676Z,64.1
2023-04-10T08:27:26.829Z,64
2023-04-10T08:28:27.992Z,63.9
2023-04-10T08:29:29.198Z,63.7
2023-04-10T08:30:30.364Z,63.6
2023-04-10T08:31:31.802Z,63.5
2023-04-10T08:32:33.069Z,63.4
2023-04-10T08:33:34.204Z,63.3
2023-04-10T08:34:35.339Z,63.3
2023-04-10T08:35:36.685Z,63.3
2023-04-10T08:36:37.856Z,63.2
2023-04-10T08:37:39.650Z,63.2
2023-04-10T08:38:40.804Z,63
2023-04-10T08:39:41.968Z,62.9
2023-04-10T08:40:43.132Z,62.7
2023-04-10T08:41:44.316Z,62.4
2023-04-10T08:42:45.471Z,62.4
2023-04-10T08:43:46.949Z,62.3
2023-04-10T08:44:48.144Z,62.3
2023-04-10T08:45:49.436Z,62.2
2023-04-10T08:46:50.587Z,62.1
2023-04-10T08:47:51.905Z,62
2023-04-10T08:48:53.081Z,61.8
2023-04-10T08:49:54.243Z,61.6
2023-04-10T08:50:55.392Z,61.5
2023-04-10T08:51:56.560Z,61.4
2023-04-10T08:52:57.735Z,61.3
2023-04-10T08:53:58.890Z,61.3
2023-04-10T08:55:00.060Z,61.3
2023-04-10T08:56:01.267Z,61
2023-04-10T08:57:02.442Z,61.1
2023-04-10T08:58:03.613Z,61.1
2023-04-10T08:59:04.791Z,61
2023-04-10T09:00:23.937Z,60.9
2023-04-10T09:01:25.197Z,60.8
2023-04-10T09:02:27.043Z,60.7
2023-04-10T09:03:28.967Z,60.5
2023-04-10T09:04:30.658Z,60.3
2023-04-10T09:05:31.923Z,60.3
2023-04-10T09:06:33.155Z,60.2
2023-04-10T09:07:34.325Z,60
2023-04-10T09:08:35.509Z,59.8
2023-04-10T09:09:36.657Z,59.7
2023-04-10T09:10:37.838Z,59.4
2023-04-10T09:11:38.990Z,59.2
2023-04-10T09:12:40.161Z,59.2
2023-04-10T09:13:41.342Z,59.1
2023-04-10T09:14:42.505Z,59
2023-04-10T09:15:43.841Z,58.8
2023-04-10T09:16:45.100Z,58.6
2023-04-10T09:17:46.401Z,58.4
2023-04-10T09:18:47.570Z,58.2
2023-04-10T09:19:48.770Z,58.1
2023-04-10T09:20:50.045Z,58
2023-04-10T09:21:51.229Z,57.9
2023-04-10T09:22:52.203Z,57.7
2023-04-10T09:23:53.815Z,57.3
2023-04-10T09:24:55.060Z,56.9
2023-04-10T09:25:56.770Z,56.8
2023-04-10T09:26:57.942Z,56.4
2023-04-10T09:27:59.099Z,56.4
2023-04-10T09:29:00.271Z,56.1
2023-04-10T09:30:01.444Z,55.9
2023-04-10T09:31:02.814Z,55.8
2023-04-10T09:32:04.053Z,55.6
2023-04-10T09:33:05.338Z,55.5
2023-04-10T09:34:06.483Z,55.6
2023-04-10T09:35:07.692Z,55.5
2023-04-10T09:36:08.867Z,55.4
2023-04-10T09:37:10.015Z,55.3
2023-04-10T09:38:11.184Z,54.8
2023-04-10T09:39:12.209Z,54.6
2023-04-10T09:40:13.365Z,54.5
2023-04-10T09:41:14.554Z,54.4
2023-04-10T09:42:15.885Z,53.9
2023-04-10T09:43:17.053Z,53.4
2023-04-10T09:44:17.824Z,53.3
2023-04-10T09:45:18.817Z,53.3
2023-04-10T09:46:20.085Z,53.2
2023-04-10T09:47:21.093Z,53.2
2023-04-10T09:48:22.258Z,52.9
2023-04-10T09:49:23.299Z,52.9
2023-04-10T09:50:24.477Z,52.9
2023-04-10T09:51:25.627Z,52.8
2023-04-10T09:52:26.849Z,52.5
2023-04-10T09:53:28.010Z,52.3
2023-04-10T09:54:29.169Z,52.1
2023-04-10T09:55:30.141Z,51.8
2023-04-10T09:56:31.119Z,51.4
2023-04-10T09:57:32.286Z,51.1
2023-04-10T09:58:33.107Z,50.8
2023-04-10T09:59:34.277Z,50.5
2023-04-10T10:00:35.446Z,50.4
2023-04-10T10:01:36.646Z,50.3
2023-04-10T10:02:38.283Z,50.2
2023-04-10T10:03:39.435Z,50.1
2023-04-10T10:04:40.611Z,49.9
2023-04-10T10:05:41.776Z,49.8
2023-04-10T10:06:42.595Z,49.8
2023-04-10T10:07:43.569Z,49.7
2023-04-10T10:08:44.734Z,49.7
2023-04-10T10:09:45.922Z,49.6
2023-04-10T10:10:46.926Z,49.5
2023-04-10T10:11:47.648Z,49.3
2023-04-10T10:12:48.818Z,49.2
2023-04-10T10:13:49.792Z,49.1
2023-04-10T10:14:50.947Z,49
2023-04-10T10:15:52.225Z,48.7
2023-04-10T10:16:53.181Z,48.5
2023-04-10T10:17:54.380Z,48.5
2023-04-10T10:18:56.459Z,47.7
2023-04-10T10:19:57.723Z,47.7
2023-04-10T10:20:58.780Z,47.6
2023-04-10T10:21:59.915Z,47.3
2023-04-10T10:23:01.242Z,47.1
2023-04-10T10:24:02.304Z,47
2023-04-10T10:25:03.599Z,46.7
2023-04-10T10:26:04.586Z,46.6
2023-04-10T10:27:05.758Z,46.5
2023-04-10T10:28:06.916Z,46.4
2023-04-10T10:29:08.085Z,46.3
2023-04-10T10:30:30.729Z,46.1
2023-04-10T10:31:32.029Z,45.8
2023-04-10T10:32:32.859Z,45.7
2023-04-10T10:33:33.704Z,45.6
2023-04-10T10:34:34.877Z,45.6
2023-04-10T10:35:36.042Z,45.4
2023-04-10T10:36:37.440Z,45.3
2023-04-10T10:37:38.503Z,45.1
2023-04-10T10:38:39.706Z,44.9
2023-04-10T10:39:40.662Z,45
2023-04-10T10:40:41.753Z,45
2023-04-10T10:41:42.915Z,45
2023-04-10T10:42:44.080Z,45.1
2023-04-10T10:43:45.248Z,45.2
2023-04-10T10:44:46.418Z,45.3
2023-04-10T10:45:47.600Z,45.3
2023-04-10T10:46:48.760Z,45.4
2023-04-10T10:47:50.101Z,45.4
2023-04-10T10:48:51.291Z,45.4
2023-04-10T10:49:52.441Z,45.4
2023-04-10T10:50:53.614Z,45.5
2023-04-10T10:51:54.800Z,45.6
2023-04-10T10:52:55.922Z,45.5
2023-04-10T10:53:57.088Z,44.7
2023-04-10T10:55:00.302Z,44
2023-04-10T10:56:01.079Z,44
2023-04-10T10:57:02.154Z,43.9
2023-04-10T10:58:03.301Z,44
2023-04-10T10:59:04.471Z,44.2
2023-04-10T11:00:05.640Z,44.1
2023-04-10T11:01:11.024Z,43.7
2023-04-10T11:02:12.380Z,43.5
2023-04-10T11:03:13.828Z,43.2
2023-04-10T11:04:15.196Z,43.1
2023-04-10T11:05:16.194Z,42.6
2023-04-10T11:06:17.465Z,42.1
2023-04-10T11:07:18.642Z,41.7
2023-04-10T11:08:20.111Z,41.3
2023-04-10T11:09:21.010Z,41.3
2023-04-10T11:10:22.173Z,41.4
2023-04-10T11:11:23.145Z,41.8
2023-04-10T11:12:24.350Z,41.5
2023-04-10T11:13:25.304Z,41.5
2023-04-10T11:14:26.550Z,41.6
2023-04-10T11:15:27.483Z,41.6
2023-04-10T11:16:28.615Z,41.6
2023-04-10T11:17:29.756Z,41.6
2023-04-10T11:18:30.923Z,41.7
2023-04-10T11:19:32.089Z,41.1
2023-04-10T11:20:33.254Z,40.7
2023-04-10T11:21:34.442Z,40.8
2023-04-10T11:22:35.419Z,40.8
2023-04-10T11:23:36.593Z,40.8
2023-04-10T11:24:37.693Z,40.4
2023-04-10T11:25:38.845Z,40
2023-04-10T11:26:40.019Z,40
2023-04-10T11:27:41.067Z,40.1
2023-04-10T11:28:41.831Z,40.3
2023-04-10T11:29:42.998Z,40.2
2023-04-10T11:30:43.823Z,40.3
2023-04-10T11:31:44.909Z,40.2
2023-04-10T11:32:45.917Z,40
2023-04-10T11:33:46.913Z,39.9
2023-04-10T11:34:48.083Z,39.8
2023-04-10T11:35:49.024Z,39.9
2023-04-10T11:36:49.981Z,40.1
2023-04-10T11:37:50.969Z,40.3
2023-04-10T11:38:52.702Z,40.5
2023-04-10T11:39:54.040Z,40.6
2023-04-10T11:40:55.167Z,40.5
2023-04-10T11:41:56.143Z,40.5
2023-04-10T11:42:57.309Z,40.7
2023-04-10T11:43:58.225Z,41
2023-04-10T11:44:59.394Z,41.1
2023-04-10T11:46:00.658Z,41
2023-04-10T11:47:01.725Z,40.7
2023-04-10T11:48:02.882Z,40.7
2023-04-10T11:49:04.032Z,41
2023-04-10T11:50:05.461Z,41.1
2023-04-10T11:51:06.475Z,41.1
2023-04-10T11:52:07.644Z,41.4
2023-04-10T11:53:08.686Z,41.2
2023-04-10T11:54:09.623Z,41.2
2023-04-10T11:55:10.806Z,41.3
2023-04-10T11:56:11.823Z,41.2
2023-04-10T11:57:12.987Z,41.2
2023-04-10T11:58:14.152Z,41.1
2023-04-10T11:59:15.163Z,41.2
2023-04-10T12:00:16.336Z,41.4
2023-04-10T12:01:17.499Z,41.2
2023-04-10T12:02:18.855Z,41.4
2023-04-10T12:03:20.253Z,41.4
2023-04-10T12:04:22.425Z,41
2023-04-10T12:05:23.652Z,41
2023-04-10T12:06:24.825Z,41
2023-04-10T12:07:25.990Z,41.1
2023-04-10T12:08:27.191Z,41.3
2023-04-10T12:09:28.142Z,41.5
2023-04-10T12:10:29.119Z,41.5
2023-04-10T12:11:30.295Z,41.4
2023-04-10T12:12:31.065Z,41.3
2023-04-10T12:13:31.882Z,41.1
2023-04-10T12:14:33.061Z,40.5
2023-04-10T12:15:33.926Z,40.2
2023-04-10T12:16:35.073Z,40
2023-04-10T12:17:36.007Z,40
2023-04-10T12:18:36.644Z,39.9
2023-04-10T12:19:37.821Z,39.9
2023-04-10T12:20:38.634Z,39.7
2023-04-10T12:21:39.615Z,39.8
2023-04-10T12:22:40.584Z,39.9
2023-04-10T12:23:41.782Z,39.8
2023-04-10T12:24:42.613Z,39.3
2023-04-10T12:25:43.777Z,39.1
2023-04-10T12:26:44.741Z,39.2
2023-04-10T12:27:45.565Z,39.2
2023-04-10T12:28:46.388Z,39.3
2023-04-10T12:29:47.571Z,39.3
2023-04-10T12:30:48.990Z,39.2
2023-04-10T12:31:49.937Z,39.3
2023-04-10T12:32:50.797Z,39.6
2023-04-10T12:33:51.629Z,39.8
2023-04-10T12:34:52.752Z,39.9
2023-04-10T12:35:53.615Z,40
2023-04-10T12:36:54.520Z,40
2023-04-10T12:37:55.511Z,40
2023-04-10T12:38:57.175Z,40.3
2023-04-10T12:39:58.312Z,40.3
2023-04-10T12:40:59.322Z,40.3
2023-04-10T12:42:00.336Z,40.3
2023-04-10T12:43:01.525Z,40.3
2023-04-10T12:44:02.673Z,40.4
2023-04-10T12:45:03.717Z,40.2
2023-04-10T12:46:05.064Z,40.1
2023-04-10T12:47:06.100Z,40
2023-04-10T12:48:07.259Z,40
2023-04-10T12:49:08.426Z,39.8
2023-04-10T12:50:09.402Z,39.4
2023-04-10T12:51:10.569Z,39.2
2023-04-10T12:52:11.733Z,39.4
2023-04-10T12:53:12.742Z,39.4
2023-04-10T12:54:13.746Z,39.6
2023-04-10T12:55:14.754Z,39.6
2023-04-10T12:56:15.773Z,39.7
2023-04-10T12:57:16.942Z,39.7
2023-04-10T12:58:17.927Z,39.7
2023-04-10T12:59:19.031Z,39.7
2023-04-10T13:00:19.875Z,39.6
2023-04-10T13:01:20.957Z,39.5
2023-04-10T13:02:22.189Z,39.7
2023-04-10T13:03:23.422Z,39.7
2023-04-10T13:04:24.904Z,39.6
2023-04-10T13:05:26.277Z,39.5
2023-04-10T13:06:27.456Z,39.7
2023-04-10T13:07:28.617Z,39.7
2023-04-10T13:08:29.657Z,39.6
2023-04-10T13:09:30.974Z,39.6
2023-04-10T13:10:32.118Z,39.5
2023-04-10T13:11:33.335Z,39.5
2023-04-10T13:12:34.524Z,39.4
2023-04-10T13:13:35.694Z,39.2
2023-04-10T13:14:36.912Z,39.1
2023-04-10T13:15:38.069Z,38.9
2023-04-10T13:16:39.433Z,38.8
2023-04-10T13:17:40.631Z,38.7
2023-04-10T13:18:41.808Z,38.4
2023-04-10T13:19:42.974Z,38.3
2023-04-10T13:20:44.143Z,38.3
2023-04-10T13:21:45.322Z,38.6
2023-04-10T13:22:46.477Z,38.7
2023-04-10T13:23:47.657Z,38.8
2023-04-10T13:24:48.834Z,39
2023-04-10T13:25:49.984Z,39.3
2023-04-10T13:26:51.239Z,39.6
2023-04-10T13:27:52.367Z,39.8
2023-04-10T13:28:54.436Z,39.9
2023-04-10T13:29:55.804Z,39.8
2023-04-10T13:30:56.970Z,39.9
2023-04-10T13:31:58.325Z,39.9
2023-04-10T13:32:59.684Z,39.7
2023-04-10T13:34:00.835Z,39.6
2023-04-10T13:35:02.012Z,39.4
2023-04-10T13:36:03.383Z,39.2
2023-04-10T13:37:04.745Z,39
2023-04-10T13:38:05.901Z,39.1
2023-04-10T13:39:07.070Z,39.3
2023-04-10T13:40:08.270Z,39.5
2023-04-10T13:41:09.411Z,39.7